Time;durP1;ratioP1;P1;durP2;ratioP2;P2;SDS_P1;SDS_P2;PMS_P1;PMS_P2;Temp;Humidity;BMP_temperature;BMP_pressure;BME280_temperature;BME280_humidity;BME280_pressure;Samples;Min_cycle;Max_cycle;Signal;HPM_P1;HPM_P2
2022/12/04 00:00:54;;;;;;;75.85;29.52;;;0.90;99.90;;;;;;5030858;28;20064;-69
2022/12/04 00:03:19;;;;;;;89.55;32.20;;;0.90;99.90;;;;;;5031189;28;20067;-69
2022/12/04 00:05:45;;;;;;;82.80;31.27;;;0.90;99.90;;;;;;5031285;28;20171;-70
2022/12/04 00:08:11;;;;;;;81.90;31.45;;;0.90;99.90;;;;;;5030593;28;20085;-69
2022/12/04 00:10:42;;;;;;;73.72;29.67;;;1.00;99.90;;;;;;5031156;28;20052;-69
2022/12/04 00:13:08;;;;;;;81.97;31.48;;;1.00;99.90;;;;;;5030825;28;20392;-69
2022/12/04 00:15:33;;;;;;;73.82;29.67;;;1.00;99.90;;;;;;5029989;28;20049;-69
2022/12/04 00:17:59;;;;;;;80.57;30.02;;;1.00;99.90;;;;;;5030544;28;20049;-69
2022/12/04 00:20:25;;;;;;;77.13;31.90;;;1.00;99.90;;;;;;5029922;28;20026;-69
2022/12/04 00:22:50;;;;;;;81.20;31.33;;;1.00;99.90;;;;;;5030279;28;20151;-69
2022/12/04 00:25:16;;;;;;;88.25;32.22;;;1.00;99.90;;;;;;5032015;28;20033;-69
2022/12/04 00:27:42;;;;;;;72.13;29.55;;;1.00;99.90;;;;;;5030511;28;20079;-69
2022/12/04 00:30:08;;;;;;;80.43;31.48;;;1.00;99.90;;;;;;5030265;28;20465;-70
2022/12/04 00:32:35;;;;;;;82.47;31.92;;;1.00;99.90;;;;;;5030301;28;20037;-69
2022/12/04 00:35:00;;;;;;;81.72;31.55;;;1.00;99.90;;;;;;5030459;28;20034;-69
2022/12/04 00:37:26;;;;;;;83.68;31.38;;;1.00;99.90;;;;;;5027714;28;20029;-68
2022/12/04 00:39:51;;;;;;;81.10;31.65;;;1.10;99.90;;;;;;5030037;28;20030;-68
2022/12/04 00:42:17;;;;;;;76.90;30.42;;;1.00;99.90;;;;;;5028435;28;20041;-69
2022/12/04 00:44:43;;;;;;;90.30;32.70;;;1.00;99.90;;;;;;5029615;28;20029;-69
2022/12/04 00:47:08;;;;;;;81.82;31.42;;;1.00;99.90;;;;;;5030614;28;20064;-68
2022/12/04 00:49:34;;;;;;;82.30;31.27;;;1.00;99.90;;;;;;5030060;28;20088;-68
2022/12/04 00:52:00;;;;;;;80.55;30.38;;;1.00;99.90;;;;;;5030420;28;20526;-68
2022/12/04 00:54:25;;;;;;;87.03;31.23;;;1.00;99.90;;;;;;5029995;28;20034;-68
2022/12/04 00:56:51;;;;;;;90.95;31.58;;;1.00;99.90;;;;;;5030075;28;21009;-68
2022/12/04 00:59:16;;;;;;;78.75;31.33;;;1.00;99.90;;;;;;5030277;28;20025;-69
2022/12/04 01:01:42;;;;;;;77.75;30.02;;;1.00;99.90;;;;;;5030956;28;20026;-68
2022/12/04 01:04:08;;;;;;;80.78;32.05;;;1.00;99.90;;;;;;5031357;28;20029;-68
2022/12/04 01:06:34;;;;;;;80.75;30.45;;;1.00;99.90;;;;;;5030769;28;20063;-68
2022/12/04 01:09:02;;;;;;;91.63;32.15;;;1.10;99.90;;;;;;5030737;28;20089;-68
2022/12/04 01:11:29;;;;;;;76.15;30.17;;;1.00;99.90;;;;;;5029672;28;20044;-68
2022/12/04 01:13:55;;;;;;;82.35;32.35;;;1.10;99.90;;;;;;5029611;28;20025;-68
2022/12/04 01:16:28;;;;;;;87.70;30.13;;;1.10;99.90;;;;;;5030557;28;20028;-68
2022/12/04 01:18:54;;;;;;;84.80;32.53;;;1.10;99.90;;;;;;5030236;28;20076;-68
2022/12/04 01:21:20;;;;;;;84.97;32.08;;;1.00;99.90;;;;;;5030150;28;20450;-69
2022/12/04 01:23:46;;;;;;;85.55;31.10;;;1.00;99.90;;;;;;5030527;28;20036;-69
2022/12/04 01:26:12;;;;;;;76.78;29.85;;;1.10;99.90;;;;;;5030477;28;20033;-69
2022/12/04 01:28:40;;;;;;;79.53;30.08;;;1.10;99.90;;;;;;5012520;28;21211;-68
2022/12/04 01:31:09;;;;;;;80.20;30.45;;;1.10;99.90;;;;;;5030038;28;20052;-68
2022/12/04 01:33:36;;;;;;;77.60;30.85;;;1.00;99.90;;;;;;5029769;28;20052;-69
2022/12/04 01:36:05;;;;;;;83.70;30.38;;;1.10;99.90;;;;;;5030024;28;20065;-68
2022/12/04 01:38:31;;;;;;;71.85;28.85;;;1.00;99.90;;;;;;5030219;28;20028;-70
2022/12/04 01:40:57;;;;;;;76.93;31.50;;;1.10;99.90;;;;;;5030518;28;20146;-69
2022/12/04 01:43:24;;;;;;;79.28;30.27;;;1.00;99.90;;;;;;5030460;28;20037;-69
2022/12/04 01:45:58;;;;;;;81.70;31.35;;;1.10;99.90;;;;;;5029742;28;20376;-68
2022/12/04 01:48:29;;;;;;;83.05;30.45;;;1.00;99.90;;;;;;5031404;28;20077;-69
2022/12/04 01:51:05;;;;;;;80.47;30.33;;;1.00;99.90;;;;;;5031578;28;20076;-68
2022/12/04 01:53:33;;;;;;;83.80;31.77;;;1.00;99.90;;;;;;5033623;28;20026;-69
2022/12/04 01:55:59;;;;;;;81.00;30.70;;;1.10;99.90;;;;;;5033616;28;20121;-68
2022/12/04 01:58:30;;;;;;;83.57;31.65;;;1.10;99.90;;;;;;5015825;28;20034;-69
2022/12/04 02:01:00;;;;;;;89.78;31.30;;;1.10;99.90;;;;;;5033114;28;20030;-68
2022/12/04 02:03:26;;;;;;;89.55;33.88;;;1.10;99.90;;;;;;5034396;28;20458;-69
2022/12/04 02:05:52;;;;;;;82.95;30.65;;;1.10;99.90;;;;;;5034044;28;20056;-69
2022/12/04 02:08:17;;;;;;;84.70;31.65;;;1.10;99.90;;;;;;5032774;28;20018;-69
2022/12/04 02:10:55;;;;;;;77.25;31.67;;;1.10;99.90;;;;;;5033503;28;20460;-69
2022/12/04 02:13:47;;;;;;;93.63;32.92;;;1.10;99.90;;;;;;5033322;28;20032;-68
2022/12/04 02:16:25;;;;;;;75.85;30.50;;;1.10;99.90;;;;;;5033546;28;20022;-68
2022/12/04 02:19:19;;;;;;;87.70;32.05;;;1.10;99.90;;;;;;5033663;28;20014;-70
2022/12/04 02:21:47;;;;;;;;;;;1.10;99.90;;;;;;5034013;28;20085;-69
2022/12/04 02:24:33;;;;;;;90.50;33.28;;;1.10;99.90;;;;;;5033942;28;19916;-70
2022/12/04 02:27:17;;;;;;;90.15;31.70;;;1.10;99.90;;;;;;5033317;28;20033;-69
2022/12/04 02:30:13;;;;;;;87.40;33.55;;;1.10;99.90;;;;;;5032338;28;20064;-68
2022/12/04 02:33:03;;;;;;;85.00;32.10;;;1.10;99.90;;;;;;5033457;28;20030;-70
2022/12/04 02:35:43;;;;;;;85.00;30.58;;;1.10;99.90;;;;;;5032239;28;20163;-68
2022/12/04 02:38:08;;;;;;;84.10;31.80;;;1.10;99.90;;;;;;5033109;28;20045;-69
2022/12/04 02:40:47;;;;;;;83.57;32.88;;;1.10;99.90;;;;;;5032302;28;20060;-67
2022/12/04 02:43:25;;;;;;;90.68;32.85;;;1.00;99.90;;;;;;5031617;28;20048;-69
2022/12/04 02:45:56;;;;;;;85.13;32.85;;;1.10;99.90;;;;;;5015222;28;20040;-68
2022/12/04 02:48:25;;;;;;;84.30;33.22;;;1.00;99.90;;;;;;5033346;28;20028;-69
2022/12/04 02:50:55;;;;;;;86.53;33.33;;;1.10;99.90;;;;;;5032131;28;20049;-68
2022/12/04 02:53:29;;;;;;;85.35;32.17;;;1.00;99.90;;;;;;5034467;28;20032;-67
2022/12/04 02:55:57;;;;;;;;;;;1.00;99.90;;;;;;5033081;28;20042;-68
2022/12/04 02:58:31;;;;;;;92.50;31.77;;;1.10;99.90;;;;;;5030374;28;19909;-68
2022/12/04 03:01:00;;;;;;;83.40;32.20;;;1.10;99.90;;;;;;5032416;28;20026;-68
2022/12/04 03:03:29;;;;;;;79.18;31.10;;;1.10;99.90;;;;;;5032770;28;20025;-67
2022/12/04 03:06:04;;;;;;;85.38;31.08;;;1.10;99.90;;;;;;5032829;28;20041;-68
2022/12/04 03:08:39;;;;;;;88.15;32.65;;;1.10;99.90;;;;;;5032583;28;20030;-68
2022/12/04 03:11:04;;;;;;;82.05;32.17;;;1.10;99.90;;;;;;5032824;28;20025;-68
2022/12/04 03:13:44;;;;;;;82.22;31.55;;;1.10;99.90;;;;;;5032683;28;20108;-68
2022/12/04 03:16:17;;;;;;;80.43;31.58;;;1.10;99.90;;;;;;5032197;28;20116;-69
2022/12/04 03:18:55;;;;;;;86.13;32.67;;;1.10;99.90;;;;;;5032599;28;20057;-69
2022/12/04 03:21:26;;;;;;;78.90;31.92;;;1.10;99.90;;;;;;5032660;28;20531;-68
2022/12/04 03:24:03;;;;;;;81.28;30.38;;;1.10;99.90;;;;;;5033062;28;20049;-69
2022/12/04 03:26:43;;;;;;;88.88;31.30;;;1.10;99.90;;;;;;5032793;28;20036;-68
2022/12/04 03:29:34;;;;;;;86.40;31.77;;;1.10;99.90;;;;;;5032455;28;20044;-69
2022/12/04 03:32:24;;;;;;;72.20;30.63;;;1.10;99.90;;;;;;5032747;28;20029;-68
2022/12/04 03:35:19;;;;;;;83.82;29.73;;;1.10;99.90;;;;;;5031711;28;20037;-67
2022/12/04 03:38:28;;;;;;;83.30;32.00;;;1.10;99.90;;;;;;5031835;28;20033;-68
2022/12/04 03:41:03;;;;;;;77.40;29.30;;;1.10;99.90;;;;;;5023821;28;20065;-67
2022/12/04 03:43:45;;;;;;;82.90;31.25;;;1.10;99.90;;;;;;5031375;28;20037;-68
2022/12/04 03:46:29;;;;;;;89.35;32.35;;;1.10;99.90;;;;;;5031805;28;20389;-69
2022/12/04 03:49:06;;;;;;;74.72;31.02;;;1.10;99.90;;;;;;5031595;28;20038;-68
2022/12/04 03:51:43;;;;;;;89.57;32.25;;;1.10;99.90;;;;;;5031301;28;20319;-68
2022/12/04 03:54:29;;;;;;;86.45;32.50;;;1.10;99.90;;;;;;5031582;28;20959;-69
2022/12/04 03:57:01;;;;;;;75.95;30.15;;;1.10;99.90;;;;;;5030880;28;20046;-68
2022/12/04 04:00:00;;;;;;;77.50;30.60;;;1.10;99.90;;;;;;5030994;28;20048;-69
2022/12/04 04:02:34;;;;;;;90.97;31.52;;;1.10;99.90;;;;;;5026504;28;20113;-68
2022/12/04 04:05:07;;;;;;;73.47;29.58;;;1.00;99.90;;;;;;5031664;28;20026;-69
2022/12/04 04:07:55;;;;;;;82.25;31.90;;;1.00;99.90;;;;;;5033011;28;20025;-68
2022/12/04 04:10:30;;;;;;;75.32;29.02;;;0.90;99.90;;;;;;5031205;28;20034;-68
2022/12/04 04:24:42;;;;;;;77.57;28.60;;;0.90;99.90;;;;;;5032976;28;20041;-69
2022/12/04 04:27:07;;;;;;;76.32;29.73;;;1.00;99.90;;;;;;5032283;28;20046;-69
2022/12/04 04:29:33;;;;;;;75.15;28.30;;;1.00;99.90;;;;;;5033476;28;20045;-68
2022/12/04 04:32:21;;;;;;;78.72;30.05;;;1.00;99.90;;;;;;5032008;28;20092;-68
2022/12/04 04:35:12;;;;;;;71.05;27.67;;;1.00;99.90;;;;;;5033059;28;20029;-68
2022/12/04 04:37:44;;;;;;;78.45;28.88;;;1.00;99.90;;;;;;4998870;28;20030;-68
2022/12/04 04:40:22;;;;;;;78.55;29.38;;;1.00;99.90;;;;;;5031710;28;20053;-69
2022/12/04 04:43:04;;;;;;;74.18;28.20;;;1.00;99.90;;;;;;5032751;28;20064;-68
2022/12/04 04:45:43;;;;;;;65.22;27.95;;;1.00;99.90;;;;;;5031805;28;20017;-68
2022/12/04 04:48:12;;;;;;;83.72;31.35;;;1.00;99.90;;;;;;5032787;28;20041;-70
2022/12/04 04:50:38;;;;;;;74.32;28.83;;;1.10;99.90;;;;;;5032378;28;20048;-70
2022/12/04 04:53:09;;;;;;;64.47;26.45;;;1.10;99.90;;;;;;5031905;28;20026;-68
2022/12/04 04:55:36;;;;;;;75.82;30.52;;;1.10;99.90;;;;;;5032489;28;20076;-68
2022/12/04 04:58:06;;;;;;;72.43;28.38;;;1.10;99.90;;;;;;5031511;28;20022;-68
2022/12/04 05:00:32;;;;;;;74.32;28.77;;;1.10;99.90;;;;;;5031892;28;20022;-68
2022/12/04 05:02:57;;;;;;;77.10;29.17;;;1.00;99.90;;;;;;5032071;28;20030;-68
2022/12/04 05:05:23;;;;;;;80.45;28.38;;;1.10;99.90;;;;;;5032465;28;20041;-69
2022/12/04 05:07:48;;;;;;;79.35;29.33;;;1.10;99.90;;;;;;5031499;28;20075;-68
2022/12/04 05:10:14;;;;;;;73.97;28.73;;;1.10;99.90;;;;;;5032967;28;20029;-68
2022/12/04 05:12:40;;;;;;;76.25;28.30;;;1.10;99.90;;;;;;5032123;28;20529;-68
2022/12/04 05:15:06;;;;;;;74.28;29.15;;;1.10;99.90;;;;;;5032098;28;20044;-68
2022/12/04 05:17:34;;;;;;;80.47;29.05;;;1.10;99.90;;;;;;5032550;28;20017;-68
2022/12/04 05:20:00;;;;;;;74.35;29.40;;;1.00;99.90;;;;;;5031011;28;20093;-68
2022/12/04 05:22:35;;;;;;;76.97;29.15;;;1.10;99.90;;;;;;5031682;28;20049;-68
2022/12/04 05:25:02;;;;;;;70.68;28.65;;;1.10;99.90;;;;;;5031686;28;20029;-68
2022/12/04 05:27:29;;;;;;;78.22;29.42;;;1.10;99.90;;;;;;5030984;28;20791;-68
2022/12/04 05:29:56;;;;;;;68.28;28.27;;;1.10;99.90;;;;;;5031925;28;20095;-68
2022/12/04 05:32:24;;;;;;;77.85;29.08;;;1.10;99.90;;;;;;5032191;28;20025;-69
2022/12/04 05:34:50;;;;;;;79.68;30.13;;;1.20;99.90;;;;;;5031739;28;20454;-69
2022/12/04 05:37:16;;;;;;;72.15;28.70;;;1.10;99.90;;;;;;5032085;28;20424;-68
2022/12/04 05:39:42;;;;;;;72.43;30.25;;;1.10;99.90;;;;;;5031942;28;20030;-68
2022/12/04 05:42:08;;;;;;;72.25;29.02;;;1.20;99.90;;;;;;5031398;28;20149;-68
2022/12/04 05:44:34;;;;;;;74.72;27.77;;;1.20;99.90;;;;;;5032497;28;20095;-68
2022/12/04 05:47:00;;;;;;;81.75;30.35;;;1.20;99.90;;;;;;5031568;28;20044;-70
2022/12/04 05:49:28;;;;;;;75.50;28.77;;;1.20;99.90;;;;;;5030632;28;20046;-68
2022/12/04 05:51:54;;;;;;;75.55;28.60;;;1.20;99.90;;;;;;5031510;28;20114;-69
2022/12/04 05:54:19;;;;;;;70.40;26.52;;;1.20;99.90;;;;;;5031078;28;20049;-69
2022/12/04 05:56:45;;;;;;;67.97;28.02;;;1.20;99.90;;;;;;5031880;28;20021;-70
2022/12/04 05:59:11;;;;;;;73.43;28.83;;;1.20;99.90;;;;;;5031461;28;20080;-69
2022/12/04 06:01:37;;;;;;;78.32;27.77;;;1.20;99.90;;;;;;5032283;28;20065;-68
2022/12/04 06:04:02;;;;;;;76.15;30.00;;;1.20;99.90;;;;;;5031649;28;20026;-68
2022/12/04 06:06:28;;;;;;;85.10;30.55;;;1.20;99.90;;;;;;5031704;28;20017;-68
2022/12/04 06:08:56;;;;;;;69.68;29.17;;;1.20;99.90;;;;;;5031312;28;20037;-68
2022/12/04 06:11:25;;;;;;;80.07;29.63;;;1.20;99.90;;;;;;5031288;28;20037;-68
2022/12/04 06:13:51;;;;;;;75.20;29.15;;;1.20;99.90;;;;;;5031478;28;20454;-68
2022/12/04 06:16:29;;;;;;;72.82;28.52;;;1.30;99.90;;;;;;5031388;28;20018;-69
2022/12/04 06:19:01;;;;;;;80.82;29.63;;;1.30;99.90;;;;;;5031901;28;20032;-68
2022/12/04 06:21:30;;;;;;;71.93;28.75;;;1.30;99.90;;;;;;5031331;28;20056;-68
2022/12/04 06:23:56;;;;;;;72.07;28.48;;;1.30;99.90;;;;;;5031446;28;20061;-68
2022/12/04 06:26:22;;;;;;;66.38;26.92;;;1.30;99.90;;;;;;5031641;28;20763;-68
2022/12/04 06:28:48;;;;;;;72.43;28.48;;;1.40;99.90;;;;;;5030714;28;20025;-68
2022/12/04 06:31:17;;;;;;;78.95;30.55;;;1.40;99.90;;;;;;5031379;28;20033;-69
2022/12/04 06:33:44;;;;;;;67.95;27.52;;;1.40;99.90;;;;;;5029884;28;20109;-69
2022/12/04 06:36:13;;;;;;;79.63;29.50;;;1.40;99.90;;;;;;5032516;28;20025;-69
2022/12/04 06:38:40;;;;;;;79.22;28.33;;;1.50;99.90;;;;;;5032258;28;20030;-69
2022/12/04 06:41:07;;;;;;;72.75;28.10;;;1.40;99.90;;;;;;5034143;28;20049;-68
2022/12/04 06:43:33;;;;;;;74.22;28.25;;;1.40;99.90;;;;;;5034475;28;20072;-68
2022/12/04 06:46:07;;;;;;;70.05;28.17;;;1.40;99.90;;;;;;5034497;28;20481;-68
2022/12/04 06:48:33;;;;;;;76.82;29.48;;;1.40;99.90;;;;;;5031903;28;21550;-68
2022/12/04 06:51:11;;;;;;;70.53;29.10;;;1.40;99.90;;;;;;5030389;28;20138;-68
2022/12/04 06:53:39;;;;;;;69.80;25.80;;;1.40;99.90;;;;;;5033294;28;20033;-68
2022/12/04 06:56:07;;;;;;;69.82;27.60;;;1.40;99.90;;;;;;5034300;28;20029;-69
2022/12/04 06:58:34;;;;;;;66.72;27.55;;;1.40;99.90;;;;;;5033923;28;20048;-69
2022/12/04 07:01:05;;;;;;;74.05;28.88;;;1.40;99.90;;;;;;5028848;28;20040;-69
2022/12/04 07:03:31;;;;;;;69.57;28.85;;;1.40;99.90;;;;;;5029186;28;20025;-69
2022/12/04 07:05:56;;;;;;;66.30;26.55;;;1.40;99.90;;;;;;5028556;28;20033;-70
2022/12/04 07:08:22;;;;;;;67.75;27.25;;;1.40;99.90;;;;;;5030789;28;20026;-70
2022/12/04 07:10:47;;;;;;;79.32;28.73;;;1.40;99.90;;;;;;5031129;28;20052;-69
2022/12/04 07:13:13;;;;;;;77.50;30.60;;;1.40;99.90;;;;;;5032293;28;20076;-69
2022/12/04 07:15:39;;;;;;;79.00;29.13;;;1.40;99.90;;;;;;5033408;28;20093;-69
2022/12/04 07:18:05;;;;;;;72.10;29.27;;;1.40;99.90;;;;;;5030316;28;20034;-68
2022/12/04 07:20:31;;;;;;;75.30;27.88;;;1.40;99.90;;;;;;5031671;28;20029;-69
2022/12/04 07:22:56;;;;;;;67.50;28.40;;;1.40;99.90;;;;;;5032798;28;20087;-70
2022/12/04 07:25:22;;;;;;;75.85;28.33;;;1.50;99.90;;;;;;5030928;28;20077;-68
2022/12/04 07:27:48;;;;;;;76.68;28.55;;;1.40;99.90;;;;;;5030366;28;20022;-69
2022/12/04 07:30:14;;;;;;;69.82;28.58;;;1.40;99.90;;;;;;5029797;28;20057;-69
2022/12/04 07:32:40;;;;;;;76.65;28.05;;;1.40;99.90;;;;;;5030940;28;20041;-68
2022/12/04 07:35:06;;;;;;;73.20;27.95;;;1.40;99.90;;;;;;5029171;28;20049;-67
2022/12/04 07:37:35;;;;;;;72.38;27.92;;;1.40;99.90;;;;;;5032700;28;20096;-67
2022/12/04 07:40:02;;;;;;;66.50;25.77;;;1.40;99.90;;;;;;5031978;28;20107;-67
2022/12/04 07:42:28;;;;;;;76.60;29.15;;;1.40;99.90;;;;;;5030988;28;20025;-67
2022/12/04 07:44:53;;;;;;;66.80;27.02;;;1.40;99.90;;;;;;5030221;28;20034;-67
2022/12/04 07:47:19;;;;;;;75.22;28.70;;;1.40;99.90;;;;;;5030495;28;20032;-67
2022/12/04 07:49:45;;;;;;;69.43;27.33;;;1.40;99.90;;;;;;5031153;28;20044;-68
2022/12/04 07:52:10;;;;;;;75.03;28.17;;;1.50;99.90;;;;;;5031487;28;20083;-66
2022/12/04 07:54:36;;;;;;;74.13;28.45;;;1.40;99.90;;;;;;5031418;28;20090;-68
2022/12/04 07:57:01;;;;;;;72.97;26.52;;;1.50;99.90;;;;;;5030766;28;20040;-67
2022/12/04 07:59:27;;;;;;;77.07;29.30;;;1.50;99.90;;;;;;5032076;28;20025;-67
2022/12/04 08:01:53;;;;;;;74.07;27.70;;;1.50;99.90;;;;;;5030365;28;20060;-67
2022/12/04 08:04:18;;;;;;;63.85;27.35;;;1.50;99.90;;;;;;5030660;28;20041;-67
2022/12/04 08:06:44;;;;;;;76.63;28.25;;;1.50;99.90;;;;;;5030427;28;20480;-68
2022/12/04 08:09:10;;;;;;;76.53;27.58;;;1.50;99.90;;;;;;5031476;28;20068;-69
2022/12/04 08:11:36;;;;;;;69.25;27.17;;;1.50;99.90;;;;;;5031972;28;20021;-66
2022/12/04 08:14:04;;;;;;;66.13;26.70;;;1.50;99.90;;;;;;5030941;28;20487;-66
2022/12/04 08:16:31;;;;;;;73.15;27.10;;;1.50;99.90;;;;;;5031635;28;20029;-68
2022/12/04 08:18:57;;;;;;;77.00;29.08;;;1.50;99.90;;;;;;5031399;28;20028;-68
2022/12/04 08:21:24;;;;;;;67.13;26.90;;;1.50;99.90;;;;;;5031476;28;20202;-68
2022/12/04 08:23:52;;;;;;;65.65;26.55;;;1.50;99.90;;;;;;5031769;28;20025;-68
2022/12/04 08:26:18;;;;;;;67.40;27.63;;;1.50;99.90;;;;;;5027460;28;20026;-68
2022/12/04 08:28:44;;;;;;;72.10;28.10;;;1.50;99.90;;;;;;5031116;28;20025;-71
2022/12/04 08:31:16;;;;;;;67.03;27.95;;;1.60;99.90;;;;;;5030280;28;20033;-68
2022/12/04 08:33:43;;;;;;;67.55;27.98;;;1.60;99.90;;;;;;5028173;28;20046;-68
2022/12/04 08:36:11;;;;;;;78.07;29.17;;;1.60;99.90;;;;;;5027691;28;20056;-68
2022/12/04 08:38:37;;;;;;;71.32;27.77;;;1.60;99.90;;;;;;5029714;28;20374;-69
2022/12/04 08:41:05;;;;;;;93.95;27.33;;;1.60;99.90;;;;;;5031127;28;20048;-68
2022/12/04 08:43:31;;;;;;;74.13;28.98;;;1.50;99.90;;;;;;5012279;28;20036;-67
2022/12/04 08:46:02;;;;;;;62.50;26.67;;;1.50;99.90;;;;;;5027049;28;20203;-67
2022/12/04 08:48:28;;;;;;;78.35;28.42;;;1.60;99.90;;;;;;5029052;28;20065;-68
2022/12/04 08:50:54;;;;;;;80.40;29.20;;;1.60;99.90;;;;;;5011473;28;20061;-67
2022/12/04 08:53:20;;;;;;;73.72;28.77;;;1.60;99.90;;;;;;5028364;28;20030;-69
2022/12/04 08:55:46;;;;;;;68.30;26.92;;;1.60;99.90;;;;;;5029723;28;20034;-67
2022/12/04 08:58:12;;;;;;;70.95;28.15;;;1.60;99.90;;;;;;5029556;28;20044;-68
2022/12/04 09:00:38;;;;;;;73.45;28.00;;;1.70;99.90;;;;;;5030509;28;20036;-69
2022/12/04 09:03:04;;;;;;;68.40;26.55;;;1.70;99.90;;;;;;5029107;28;20089;-66
2022/12/04 09:05:30;;;;;;;78.97;31.02;;;1.70;99.90;;;;;;5030317;28;20017;-69
2022/12/04 09:07:56;;;;;;;76.88;28.27;;;1.70;99.90;;;;;;5030022;28;20873;-66
2022/12/04 09:10:22;;;;;;;71.60;29.13;;;1.70;99.90;;;;;;5029565;28;20044;-68
2022/12/04 09:12:47;;;;;;;74.13;29.73;;;1.70;99.90;;;;;;5027667;28;20149;-67
2022/12/04 09:15:13;;;;;;;68.78;26.55;;;1.70;99.90;;;;;;5026483;28;20072;-69
2022/12/04 09:17:39;;;;;;;68.97;27.70;;;1.80;99.90;;;;;;5025237;28;20041;-68
2022/12/04 09:20:07;;;;;;;70.47;26.30;;;1.80;99.90;;;;;;5029067;28;20035;-68
2022/12/04 09:22:34;;;;;;;74.97;27.05;;;1.80;99.90;;;;;;5027325;28;20117;-68
2022/12/04 09:25:00;;;;;;;71.88;28.45;;;1.80;99.90;;;;;;5027852;28;20134;-67
2022/12/04 09:27:26;;;;;;;67.20;28.10;;;1.80;99.90;;;;;;5027624;28;20037;-67
2022/12/04 09:29:51;;;;;;;66.53;26.73;;;1.80;99.90;;;;;;5027308;28;20406;-68
2022/12/04 09:32:17;;;;;;;72.07;26.90;;;1.90;99.90;;;;;;5029478;28;20030;-68
2022/12/04 09:34:43;;;;;;;60.22;25.42;;;1.90;99.90;;;;;;5026623;28;20053;-67
2022/12/04 09:37:08;;;;;;;74.25;28.38;;;1.90;99.90;;;;;;5028375;28;20611;-67
2022/12/04 09:39:34;;;;;;;70.88;27.52;;;2.00;99.90;;;;;;5029184;28;20127;-68
2022/12/04 09:42:17;;;;;;;71.10;28.10;;;2.00;99.90;;;;;;5028157;28;20030;-68
2022/12/04 09:44:55;;;;;;;73.47;27.85;;;2.00;99.90;;;;;;5029610;28;20057;-68
2022/12/04 09:47:27;;;;;;;66.22;27.17;;;2.00;99.90;;;;;;5021686;28;20042;-67
2022/12/04 09:50:00;;;;;;;69.90;28.33;;;2.00;99.90;;;;;;5025855;28;20511;-67
2022/12/04 09:52:57;;;;;;;68.93;28.05;;;2.00;99.90;;;;;;5030963;28;20064;-68
2022/12/04 09:55:44;;;;;;;71.22;27.80;;;2.00;99.90;;;;;;5030608;28;20022;-68
2022/12/04 09:58:21;;;;;;;66.40;26.85;;;2.00;99.90;;;;;;5029048;28;20017;-68
2022/12/04 10:00:50;;;;;;;70.47;27.42;;;2.10;99.90;;;;;;5029629;28;20113;-68
2022/12/04 10:03:21;;;;;;;69.63;27.77;;;2.10;99.90;;;;;;5030121;28;20097;-69
2022/12/04 10:06:14;;;;;;;69.90;26.63;;;2.10;99.90;;;;;;5031423;28;20029;-69
2022/12/04 10:08:43;;;;;;;69.25;25.88;;;2.10;99.90;;;;;;5031706;28;20065;-69
2022/12/04 10:11:32;;;;;;;65.47;26.48;;;2.10;99.90;;;;;;5034814;28;20116;-69
2022/12/04 10:14:07;;;;;;;68.47;28.95;;;2.20;99.90;;;;;;5034428;28;20030;-68
2022/12/04 10:16:38;;;;;;;76.20;27.38;;;2.20;99.90;;;;;;5016871;28;20041;-68
2022/12/04 10:19:04;;;;;;;68.13;26.92;;;2.20;99.90;;;;;;5034540;28;20104;-69
2022/12/04 10:21:54;;;;;;;74.10;27.42;;;2.10;99.90;;;;;;5033635;28;20058;-69
2022/12/04 10:24:37;;;;;;;66.80;26.95;;;2.20;99.90;;;;;;5033454;28;20038;-68
2022/12/04 10:27:19;;;;;;;69.60;27.95;;;2.20;99.90;;;;;;5032976;28;20022;-67
2022/12/04 10:29:49;;;;;;;68.97;27.42;;;2.20;99.90;;;;;;5033191;28;20105;-69
2022/12/04 10:32:29;;;;;;;82.32;28.98;;;2.20;99.90;;;;;;5032115;28;20579;-67
2022/12/04 10:34:58;;;;;;;73.68;28.38;;;2.30;99.90;;;;;;5032303;28;20133;-68
2022/12/04 10:37:25;;;;;;;68.57;28.73;;;2.30;99.90;;;;;;5033793;28;20025;-68
2022/12/04 10:39:51;;;;;;;73.93;28.05;;;2.30;99.90;;;;;;5034096;28;20033;-68
2022/12/04 10:42:37;;;;;;;66.25;28.15;;;2.30;99.90;;;;;;5033583;28;20041;-68
2022/12/04 10:45:04;;;;;;;71.03;27.63;;;2.30;99.90;;;;;;5033196;28;20074;-69
2022/12/04 10:47:31;;;;;;;71.22;27.90;;;2.40;99.90;;;;;;5033566;28;20026;-69
2022/12/04 10:50:03;;;;;;;76.45;28.42;;;2.30;99.90;;;;;;5033489;28;20413;-68
2022/12/04 10:52:29;;;;;;;79.97;29.13;;;2.40;99.90;;;;;;5033191;28;20042;-68
2022/12/04 10:54:58;;;;;;;79.40;30.08;;;2.40;99.90;;;;;;5033206;28;20076;-69
2022/12/04 10:57:39;;;;;;;73.25;28.67;;;2.40;99.90;;;;;;5033195;28;20017;-70
2022/12/04 11:00:26;;;;;;;70.40;28.92;;;2.40;99.90;;;;;;5034239;28;20477;-69
2022/12/04 11:02:55;;;;;;;81.57;29.20;;;2.40;99.90;;;;;;5026340;28;20033;-68
2022/12/04 11:05:34;;;;;;;77.45;29.17;;;2.40;99.90;;;;;;5033027;28;20018;-68
2022/12/04 11:08:02;;;;;;;78.15;28.98;;;2.40;99.90;;;;;;5015384;28;20039;-68
2022/12/04 11:10:41;;;;;;;77.68;29.00;;;2.50;99.90;;;;;;5032191;28;20057;-69
2022/12/04 11:13:10;;;;;;;81.95;29.35;;;2.50;99.90;;;;;;5028548;28;20034;-70
2022/12/04 11:15:45;;;;;;;70.10;27.85;;;2.50;99.90;;;;;;5027477;28;20038;-69
2022/12/04 11:18:23;;;;;;;80.95;28.35;;;2.50;99.90;;;;;;5032498;28;20017;-69
2022/12/04 11:21:14;;;;;;;75.45;29.05;;;2.50;99.90;;;;;;5032503;28;20085;-70
2022/12/04 11:23:46;;;;;;;81.78;29.30;;;2.60;99.90;;;;;;5028615;28;20030;-70
2022/12/04 11:26:13;;;;;;;77.28;30.10;;;2.50;99.90;;;;;;5025514;28;20065;-70
2022/12/04 11:28:42;;;;;;;75.28;30.27;;;2.60;99.90;;;;;;5029697;28;20035;-71
2022/12/04 11:31:15;;;;;;;81.85;30.25;;;2.60;99.90;;;;;;5027822;28;20044;-70
2022/12/04 11:34:16;;;;;;;74.68;28.40;;;2.60;99.90;;;;;;5026887;28;20477;-69
2022/12/04 11:36:42;;;;;;;79.60;28.95;;;2.60;99.90;;;;;;5010337;28;20450;-69
2022/12/04 11:39:11;;;;;;;78.00;29.52;;;2.60;99.90;;;;;;5033743;28;20030;-68
2022/12/04 11:41:37;;;;;;;71.38;27.63;;;2.60;99.90;;;;;;5032945;28;20057;-67
2022/12/04 11:44:06;;;;;;;78.50;30.67;;;2.70;99.90;;;;;;5031823;28;20029;-68
2022/12/04 11:46:32;;;;;;;77.72;29.67;;;2.70;99.90;;;;;;5032224;28;20026;-68
2022/12/04 11:48:59;;;;;;;76.22;29.20;;;2.70;99.90;;;;;;5031953;28;20021;-68
2022/12/04 11:51:41;;;;;;;79.60;28.70;;;2.70;99.90;;;;;;5032632;28;20185;-69
2022/12/04 11:54:12;;;;;;;78.80;28.60;;;2.70;99.90;;;;;;5031668;28;20033;-71
2022/12/04 11:56:42;;;;;;;86.15;30.50;;;2.80;99.90;;;;;;5032612;28;20037;-70
2022/12/04 11:59:35;;;;;;;71.07;29.17;;;2.80;99.90;;;;;;5032187;28;20036;-67
2022/12/04 12:02:10;;;;;;;73.53;27.92;;;2.80;99.90;;;;;;5032910;28;20088;-67
2022/12/04 12:04:42;;;;;;;75.05;29.13;;;2.80;99.90;;;;;;5032755;28;20028;-68
2022/12/04 12:07:33;;;;;;;71.28;28.45;;;2.80;99.90;;;;;;5032396;28;20090;-68
2022/12/04 12:10:13;;;;;;;68.75;28.00;;;2.90;99.90;;;;;;5032217;28;20038;-68
2022/12/04 12:12:57;;;;;;;73.07;28.38;;;2.90;99.90;;;;;;5029960;28;20033;-67
2022/12/04 12:15:41;;;;;;;72.57;26.17;;;2.90;99.90;;;;;;5029451;28;20095;-67
2022/12/04 12:18:37;;;;;;;71.60;26.35;;;2.90;99.90;;;;;;5032635;28;20029;-68
2022/12/04 12:21:35;;;;;;;70.22;28.13;;;3.00;99.90;;;;;;5032918;28;20052;-69
2022/12/04 12:24:25;;;;;;;68.10;26.58;;;3.00;99.90;;;;;;5031296;28;20089;-68
2022/12/04 12:27:04;;;;;;;66.15;24.73;;;3.00;99.90;;;;;;5028525;28;20056;-66
2022/12/04 12:29:29;;;;;;;60.78;25.77;;;3.00;99.90;;;;;;5029589;28;20049;-69
2022/12/04 12:32:10;;;;;;;66.13;25.05;;;3.00;99.90;;;;;;5029648;28;20089;-68
2022/12/04 12:34:42;;;;;;;68.57;26.17;;;3.00;99.90;;;;;;5031874;28;20813;-67
2022/12/04 12:37:17;;;;;;;68.10;26.65;;;3.00;99.90;;;;;;5028862;28;20041;-69
2022/12/04 12:40:14;;;;;;;67.57;26.52;;;3.00;99.90;;;;;;5031145;28;20036;-70
2022/12/04 12:42:52;;;;;;;71.75;27.08;;;3.10;99.90;;;;;;5031901;28;20113;-68
2022/12/04 12:45:37;;;;;;;69.07;26.38;;;3.10;99.90;;;;;;5031046;28;20040;-68
2022/12/04 12:48:21;;;;;;;67.93;25.25;;;3.10;99.90;;;;;;5030379;28;20093;-67
2022/12/04 12:51:00;;;;;;;62.20;25.30;;;3.10;99.90;;;;;;5030931;28;20045;-69
2022/12/04 12:53:31;;;;;;;75.53;26.85;;;3.10;99.90;;;;;;5030977;28;20331;-68
2022/12/04 12:55:59;;;;;;;67.47;26.20;;;3.10;99.90;;;;;;5030106;28;20040;-67
2022/12/04 12:58:37;;;;;;;69.90;25.95;;;3.10;99.90;;;;;;5027709;28;20049;-67
2022/12/04 13:01:23;;;;;;;66.60;27.38;;;3.20;99.90;;;;;;5028400;28;20018;-69
2022/12/04 13:03:57;;;;;;;71.45;26.02;;;3.20;99.90;;;;;;5029375;28;20022;-68
2022/12/04 13:06:34;;;;;;;;;;;3.20;99.90;;;;;;5029643;28;20095;-67
2022/12/04 13:09:17;;;;;;;67.32;25.08;;;3.30;99.90;;;;;;5028663;28;19991;-68
2022/12/04 13:11:47;;;;;;;67.22;25.13;;;3.20;99.90;;;;;;5029565;28;21157;-67